sensor_id;sensor_type;location;lat;lon;timestamp;pressure;altitude;pressure_sealevel;temperature;humidity
8318;BME280;4196;48.926;8.964;2023-05-10T00:00:50;98426.94;;;12.68;100.00
8318;BME280;4196;48.926;8.964;2023-05-10T00:03:36;98402.44;;;12.40;100.00
8318;BME280;4196;48.926;8.964;2023-05-10T00:06:23;98392.81;;;12.45;100.00
8318;BME280;4196;48.926;8.964;2023-05-10T00:09:09;98424.63;;;12.56;100.00
8318;BME280;4196;48.926;8.964;2023-05-10T00:11:56;98407.50;;;12.46;100.00
8318;BME280;4196;48.926;8.964;2023-05-10T00:14:44;98432.41;;;12.54;100.00
8318;BME280;4196;48.926;8.964;2023-05-10T00:17:31;98386.41;;;12.19;100.00
8318;BME280;4196;48.926;8.964;2023-05-10T00:20:17;98404.28;;;12.35;100.00
8318;BME280;4196;48.926;8.964;2023-05-10T00:23:04;98440.47;;;12.42;100.00
8318;BME280;4196;48.926;8.964;2023-05-10T00:25:51;98407.94;;;12.24;100.00
8318;BME280;4196;48.926;8.964;2023-05-10T00:28:37;98428.66;;;12.26;100.00
8318;BME280;4196;48.926;8.964;2023-05-10T00:31:24;98406.38;;;12.16;100.00
8318;BME280;4196;48.926;8.964;2023-05-10T00:34:10;98349.94;;;11.80;100.00
8318;BME280;4196;48.926;8.964;2023-05-10T00:36:57;98407.25;;;12.15;100.00
8318;BME280;4196;48.926;8.964;2023-05-10T00:39:43;98358.72;;;11.73;100.00
8318;BME280;4196;48.926;8.964;2023-05-10T00:42:30;98410.78;;;12.12;100.00
8318;BME280;4196;48.926;8.964;2023-05-10T00:45:17;98415.97;;;12.12;100.00
8318;BME280;4196;48.926;8.964;2023-05-10T00:48:04;98419.31;;;12.17;100.00
8318;BME280;4196;48.926;8.964;2023-05-10T00:50:50;98444.28;;;12.24;100.00
8318;BME280;4196;48.926;8.964;2023-05-10T00:53:37;98423.81;;;12.09;100.00
8318;BME280;4196;48.926;8.964;2023-05-10T00:56:24;98394.66;;;11.95;100.00
8318;BME280;4196;48.926;8.964;2023-05-10T00:59:11;98423.75;;;12.12;100.00
8318;BME280;4196;48.926;8.964;2023-05-10T01:01:58;98398.09;;;11.97;100.00
8318;BME280;4196;48.926;8.964;2023-05-10T01:04:44;98439.97;;;12.23;100.00
8318;BME280;4196;48.926;8.964;2023-05-10T01:07:31;98429.00;;;12.09;100.00
8318;BME280;4196;48.926;8.964;2023-05-10T01:10:17;98424.56;;;12.14;100.00
8318;BME280;4196;48.926;8.964;2023-05-10T01:13:04;98458.91;;;12.30;100.00
8318;BME280;4196;48.926;8.964;2023-05-10T01:15:51;98457.34;;;12.20;100.00
8318;BME280;4196;48.926;8.964;2023-05-10T01:18:41;98453.75;;;12.25;100.00
8318;BME280;4196;48.926;8.964;2023-05-10T01:21:49;98451.94;;;12.30;100.00
8318;BME280;4196;48.926;8.964;2023-05-10T01:31:19;98427.28;;;12.08;100.00
8318;BME280;4196;48.926;8.964;2023-05-10T01:34:21;98408.59;;;11.91;100.00
8318;BME280;4196;48.926;8.964;2023-05-10T01:37:15;98419.72;;;11.97;100.00
8318;BME280;4196;48.926;8.964;2023-05-10T01:40:13;98462.44;;;12.24;100.00
8318;BME280;4196;48.926;8.964;2023-05-10T01:43:04;98463.19;;;12.29;100.00
8318;BME280;4196;48.926;8.964;2023-05-10T01:46:10;98474.47;;;12.28;100.00
8318;BME280;4196;48.926;8.964;2023-05-10T01:49:02;98452.41;;;12.06;100.00
8318;BME280;4196;48.926;8.964;2023-05-10T01:51:51;98462.47;;;12.23;100.00
8318;BME280;4196;48.926;8.964;2023-05-10T01:54:49;98470.22;;;12.24;100.00
8318;BME280;4196;48.926;8.964;2023-05-10T01:57:37;98433.38;;;12.05;100.00
8318;BME280;4196;48.926;8.964;2023-05-10T02:00:26;98448.22;;;11.99;100.00
8318;BME280;4196;48.926;8.964;2023-05-10T02:03:14;98476.63;;;12.06;100.00
8318;BME280;4196;48.926;8.964;2023-05-10T02:06:02;98472.28;;;12.07;100.00
8318;BME280;4196;48.926;8.964;2023-05-10T02:08:50;98481.00;;;12.03;100.00
8318;BME280;4196;48.926;8.964;2023-05-10T02:11:38;98479.34;;;11.99;100.00
8318;BME280;4196;48.926;8.964;2023-05-10T02:14:26;98464.88;;;11.85;100.00
8318;BME280;4196;48.926;8.964;2023-05-10T02:17:13;98464.91;;;11.82;100.00
8318;BME280;4196;48.926;8.964;2023-05-10T02:20:01;98489.81;;;11.93;100.00
8318;BME280;4196;48.926;8.964;2023-05-10T02:22:49;98493.03;;;12.08;100.00
8318;BME280;4196;48.926;8.964;2023-05-10T02:25:37;98485.28;;;12.05;100.00
8318;BME280;4196;48.926;8.964;2023-05-10T02:28:26;98478.63;;;11.91;100.00
8318;BME280;4196;48.926;8.964;2023-05-10T02:31:14;98491.28;;;12.09;100.00
8318;BME280;4196;48.926;8.964;2023-05-10T02:34:02;98495.53;;;12.13;100.00
8318;BME280;4196;48.926;8.964;2023-05-10T02:36:50;98444.25;;;11.76;100.00
8318;BME280;4196;48.926;8.964;2023-05-10T02:39:38;98505.91;;;12.13;100.00
8318;BME280;4196;48.926;8.964;2023-05-10T02:42:33;98491.38;;;12.03;100.00
8318;BME280;4196;48.926;8.964;2023-05-10T02:45:25;98517.00;;;12.21;100.00
8318;BME280;4196;48.926;8.964;2023-05-10T02:48:14;98491.38;;;12.04;100.00
8318;BME280;4196;48.926;8.964;2023-05-10T02:51:05;98520.50;;;12.20;100.00
8318;BME280;4196;48.926;8.964;2023-05-10T02:53:53;98497.28;;;12.11;100.00
8318;BME280;4196;48.926;8.964;2023-05-10T02:56:42;98517.94;;;12.19;100.00
8318;BME280;4196;48.926;8.964;2023-05-10T02:59:33;98523.84;;;12.27;100.00
8318;BME280;4196;48.926;8.964;2023-05-10T03:02:20;98502.88;;;12.38;100.00
8318;BME280;4196;48.926;8.964;2023-05-10T03:05:07;98521.75;;;12.46;100.00
8318;BME280;4196;48.926;8.964;2023-05-10T03:07:54;98499.53;;;12.29;100.00
8318;BME280;4196;48.926;8.964;2023-05-10T03:10:58;98501.28;;;12.30;100.00
8318;BME280;4196;48.926;8.964;2023-05-10T03:17:00;98488.34;;;12.26;100.00
8318;BME280;4196;48.926;8.964;2023-05-10T03:19:55;98516.91;;;12.27;100.00
8318;BME280;4196;48.926;8.964;2023-05-10T03:26:05;98534.84;;;12.41;100.00
8318;BME280;4196;48.926;8.964;2023-05-10T03:28:54;98506.53;;;12.27;100.00
8318;BME280;4196;48.926;8.964;2023-05-10T03:31:41;98532.22;;;12.41;100.00
8318;BME280;4196;48.926;8.964;2023-05-10T03:34:30;98501.44;;;12.21;100.00
8318;BME280;4196;48.926;8.964;2023-05-10T03:37:17;98486.09;;;12.09;100.00
8318;BME280;4196;48.926;8.964;2023-05-10T03:40:05;98534.78;;;12.43;100.00
8318;BME280;4196;48.926;8.964;2023-05-10T03:42:55;98469.72;;;12.05;100.00
8318;BME280;4196;48.926;8.964;2023-05-10T03:45:41;98539.88;;;12.49;100.00
8318;BME280;4196;48.926;8.964;2023-05-10T03:48:29;98512.47;;;12.34;100.00
8318;BME280;4196;48.926;8.964;2023-05-10T03:51:15;98535.69;;;12.42;100.00
8318;BME280;4196;48.926;8.964;2023-05-10T03:54:02;98538.72;;;12.64;100.00
8318;BME280;4196;48.926;8.964;2023-05-10T03:56:49;98543.09;;;12.62;100.00
8318;BME280;4196;48.926;8.964;2023-05-10T03:59:37;98546.72;;;12.51;100.00
8318;BME280;4196;48.926;8.964;2023-05-10T04:02:24;98499.34;;;12.42;100.00
8318;BME280;4196;48.926;8.964;2023-05-10T04:05:12;98544.13;;;12.51;100.00
8318;BME280;4196;48.926;8.964;2023-05-10T04:07:58;98544.28;;;12.44;100.00
8318;BME280;4196;48.926;8.964;2023-05-10T04:10:45;98536.53;;;12.41;100.00
8318;BME280;4196;48.926;8.964;2023-05-10T04:13:31;98535.03;;;12.30;100.00
8318;BME280;4196;48.926;8.964;2023-05-10T04:16:18;98532.28;;;12.37;100.00
8318;BME280;4196;48.926;8.964;2023-05-10T04:19:04;98529.97;;;12.23;100.00
8318;BME280;4196;48.926;8.964;2023-05-10T04:21:51;98560.91;;;12.35;100.00
8318;BME280;4196;48.926;8.964;2023-05-10T04:24:38;98557.59;;;12.25;100.00
8318;BME280;4196;48.926;8.964;2023-05-10T04:27:24;98531.16;;;12.05;100.00
8318;BME280;4196;48.926;8.964;2023-05-10T04:30:11;98552.66;;;12.12;100.00
8318;BME280;4196;48.926;8.964;2023-05-10T04:32:57;98509.91;;;11.80;100.00
8318;BME280;4196;48.926;8.964;2023-05-10T04:35:44;98569.94;;;12.13;100.00
8318;BME280;4196;48.926;8.964;2023-05-10T04:38:31;98549.44;;;11.97;100.00
8318;BME280;4196;48.926;8.964;2023-05-10T04:41:17;98568.09;;;12.19;100.00
8318;BME280;4196;48.926;8.964;2023-05-10T04:44:04;98543.19;;;12.09;100.00
8318;BME280;4196;48.926;8.964;2023-05-10T04:46:50;98548.38;;;12.09;100.00
8318;BME280;4196;48.926;8.964;2023-05-10T04:49:36;98560.97;;;12.30;100.00
8318;BME280;4196;48.926;8.964;2023-05-10T04:52:23;98549.84;;;12.22;100.00
8318;BME280;4196;48.926;8.964;2023-05-10T04:55:09;98556.66;;;12.29;100.00
8318;BME280;4196;48.926;8.964;2023-05-10T04:57:56;98579.69;;;12.49;100.00
8318;BME280;4196;48.926;8.964;2023-05-10T05:00:43;98583.88;;;12.55;100.00
8318;BME280;4196;48.926;8.964;2023-05-10T05:03:30;98568.44;;;12.49;100.00
8318;BME280;4196;48.926;8.964;2023-05-10T05:06:16;98582.78;;;12.68;100.00
8318;BME280;4196;48.926;8.964;2023-05-10T05:09:03;98567.50;;;12.51;100.00
8318;BME280;4196;48.926;8.964;2023-05-10T05:11:49;98580.00;;;12.77;100.00
8318;BME280;4196;48.926;8.964;2023-05-10T05:14:35;98593.00;;;12.79;100.00
8318;BME280;4196;48.926;8.964;2023-05-10T05:17:22;98577.41;;;12.77;100.00
8318;BME280;4196;48.926;8.964;2023-05-10T05:20:09;98575.69;;;12.76;100.00
8318;BME280;4196;48.926;8.964;2023-05-10T05:22:56;98592.88;;;12.84;100.00
8318;BME280;4196;48.926;8.964;2023-05-10T05:25:43;98559.47;;;12.65;100.00
8318;BME280;4196;48.926;8.964;2023-05-10T05:28:29;98567.97;;;12.75;100.00
8318;BME280;4196;48.926;8.964;2023-05-10T05:31:18;98598.72;;;12.95;100.00
8318;BME280;4196;48.926;8.964;2023-05-10T05:34:05;98589.88;;;13.05;100.00
8318;BME280;4196;48.926;8.964;2023-05-10T05:36:52;98602.78;;;13.10;100.00
8318;BME280;4196;48.926;8.964;2023-05-10T05:39:38;98582.81;;;13.10;100.00
8318;BME280;4196;48.926;8.964;2023-05-10T05:42:25;98599.16;;;13.18;100.00
8318;BME280;4196;48.926;8.964;2023-05-10T05:45:12;98588.81;;;13.14;100.00
8318;BME280;4196;48.926;8.964;2023-05-10T05:48:01;98599.03;;;13.23;100.00
8318;BME280;4196;48.926;8.964;2023-05-10T05:50:48;98599.88;;;13.25;100.00
8318;BME280;4196;48.926;8.964;2023-05-10T05:53:34;98596.38;;;13.27;100.00
8318;BME280;4196;48.926;8.964;2023-05-10T05:56:21;98591.97;;;13.31;100.00
8318;BME280;4196;48.926;8.964;2023-05-10T05:59:11;98605.63;;;13.41;100.00
8318;BME280;4196;48.926;8.964;2023-05-10T06:01:57;98601.06;;;13.52;100.00
8318;BME280;4196;48.926;8.964;2023-05-10T06:04:44;98606.22;;;13.53;100.00
8318;BME280;4196;48.926;8.964;2023-05-10T06:07:31;98610.22;;;13.68;100.00
8318;BME280;4196;48.926;8.964;2023-05-10T06:10:18;98609.31;;;13.71;100.00
8318;BME280;4196;48.926;8.964;2023-05-10T06:13:04;98617.53;;;13.90;100.00
8318;BME280;4196;48.926;8.964;2023-05-10T06:15:51;98619.06;;;13.98;100.00
8318;BME280;4196;48.926;8.964;2023-05-10T06:18:37;98621.41;;;14.11;100.00
8318;BME280;4196;48.926;8.964;2023-05-10T06:21:23;98621.03;;;14.24;100.00
8318;BME280;4196;48.926;8.964;2023-05-10T06:24:09;98628.56;;;14.37;100.00
8318;BME280;4196;48.926;8.964;2023-05-10T06:26:56;98600.78;;;14.36;100.00
8318;BME280;4196;48.926;8.964;2023-05-10T06:29:42;98631.72;;;14.51;100.00
8318;BME280;4196;48.926;8.964;2023-05-10T06:32:28;98627.16;;;14.59;100.00
8318;BME280;4196;48.926;8.964;2023-05-10T06:35:15;98626.91;;;14.70;100.00
8318;BME280;4196;48.926;8.964;2023-05-10T06:38:01;98624.94;;;14.78;100.00
8318;BME280;4196;48.926;8.964;2023-05-10T06:40:48;98621.19;;;14.88;100.00
8318;BME280;4196;48.926;8.964;2023-05-10T06:43:34;98590.78;;;14.87;100.00
8318;BME280;4196;48.926;8.964;2023-05-10T06:46:20;98627.25;;;15.20;100.00
8318;BME280;4196;48.926;8.964;2023-05-10T06:49:07;98591.38;;;14.98;100.00
8318;BME280;4196;48.926;8.964;2023-05-10T06:51:57;98612.44;;;15.20;100.00
8318;BME280;4196;48.926;8.964;2023-05-10T06:54:43;98638.00;;;15.39;100.00
8318;BME280;4196;48.926;8.964;2023-05-10T06:57:30;98636.22;;;15.41;100.00
8318;BME280;4196;48.926;8.964;2023-05-10T07:00:18;98643.16;;;15.42;100.00
8318;BME280;4196;48.926;8.964;2023-05-10T07:03:06;98638.00;;;15.39;100.00
8318;BME280;4196;48.926;8.964;2023-05-10T07:05:52;98647.81;;;15.60;100.00
8318;BME280;4196;48.926;8.964;2023-05-10T07:08:39;98644.22;;;15.64;100.00
8318;BME280;4196;48.926;8.964;2023-05-10T07:11:26;98637.25;;;15.66;100.00
8318;BME280;4196;48.926;8.964;2023-05-10T07:14:12;98640.16;;;15.85;100.00
8318;BME280;4196;48.926;8.964;2023-05-10T07:16:59;98652.94;;;15.94;100.00
8318;BME280;4196;48.926;8.964;2023-05-10T07:19:46;98645.03;;;15.96;100.00
8318;BME280;4196;48.926;8.964;2023-05-10T07:22:32;98649.50;;;15.92;100.00
8318;BME280;4196;48.926;8.964;2023-05-10T07:25:18;98653.78;;;15.95;100.00
8318;BME280;4196;48.926;8.964;2023-05-10T07:28:05;98652.50;;;15.80;100.00
8318;BME280;4196;48.926;8.964;2023-05-10T07:30:51;98661.41;;;15.73;100.00
8318;BME280;4196;48.926;8.964;2023-05-10T07:33:38;98663.06;;;15.76;100.00
8318;BME280;4196;48.926;8.964;2023-05-10T07:36:24;98657.50;;;15.88;100.00
8318;BME280;4196;48.926;8.964;2023-05-10T07:39:11;98648.50;;;15.97;100.00
8318;BME280;4196;48.926;8.964;2023-05-10T07:42:06;98660.38;;;16.07;100.00
8318;BME280;4196;48.926;8.964;2023-05-10T07:44:52;98637.63;;;16.10;99.53
8318;BME280;4196;48.926;8.964;2023-05-10T07:47:38;98662.84;;;16.38;98.47
8318;BME280;4196;48.926;8.964;2023-05-10T07:50:25;98658.13;;;16.49;93.83
8318;BME280;4196;48.926;8.964;2023-05-10T07:53:11;98658.09;;;16.51;90.62
8318;BME280;4196;48.926;8.964;2023-05-10T07:55:58;98669.31;;;16.54;93.52
8318;BME280;4196;48.926;8.964;2023-05-10T07:58:44;98641.81;;;16.42;90.45
8318;BME280;4196;48.926;8.964;2023-05-10T08:01:31;98664.75;;;16.61;90.47
8318;BME280;4196;48.926;8.964;2023-05-10T08:04:18;98658.94;;;16.51;90.48
8318;BME280;4196;48.926;8.964;2023-05-10T08:07:05;98679.84;;;16.51;92.81
8318;BME280;4196;48.926;8.964;2023-05-10T08:09:52;98678.31;;;16.72;93.57
8318;BME280;4196;48.926;8.964;2023-05-10T08:12:38;98677.16;;;16.81;93.08
8318;BME280;4196;48.926;8.964;2023-05-10T08:15:25;98676.53;;;16.73;88.41
8318;BME280;4196;48.926;8.964;2023-05-10T08:18:11;98673.03;;;16.74;89.26
8318;BME280;4196;48.926;8.964;2023-05-10T08:20:58;98678.84;;;16.82;87.17
8318;BME280;4196;48.926;8.964;2023-05-10T08:23:44;98689.50;;;17.02;86.60
8318;BME280;4196;48.926;8.964;2023-05-10T08:26:32;98678.56;;;17.16;84.75
8318;BME280;4196;48.926;8.964;2023-05-10T08:29:19;98678.00;;;17.31;85.61
8318;BME280;4196;48.926;8.964;2023-05-10T08:32:05;98687.19;;;17.43;84.07
8318;BME280;4196;48.926;8.964;2023-05-10T08:34:51;98686.25;;;17.44;85.92
8318;BME280;4196;48.926;8.964;2023-05-10T08:37:38;98684.81;;;17.60;79.71
8318;BME280;4196;48.926;8.964;2023-05-10T08:40:25;98677.47;;;17.45;82.05
8318;BME280;4196;48.926;8.964;2023-05-10T08:43:12;98697.19;;;17.32;80.65
8318;BME280;4196;48.926;8.964;2023-05-10T08:46:01;98682.72;;;16.97;81.46
8318;BME280;4196;48.926;8.964;2023-05-10T08:48:50;98675.03;;;16.65;82.91
8318;BME280;4196;48.926;8.964;2023-05-10T08:51:40;98699.50;;;16.63;83.51
8318;BME280;4196;48.926;8.964;2023-05-10T08:54:29;98701.88;;;16.71;82.73
8318;BME280;4196;48.926;8.964;2023-05-10T08:57:16;98696.34;;;16.53;83.16
8318;BME280;4196;48.926;8.964;2023-05-10T09:00:03;98705.63;;;16.35;83.08
8318;BME280;4196;48.926;8.964;2023-05-10T09:02:50;98708.41;;;16.57;83.75
8318;BME280;4196;48.926;8.964;2023-05-10T09:05:36;98691.03;;;16.83;85.31
8318;BME280;4196;48.926;8.964;2023-05-10T09:08:23;98696.81;;;17.18;81.35
8318;BME280;4196;48.926;8.964;2023-05-10T09:11:14;98690.63;;;17.44;79.76
8318;BME280;4196;48.926;8.964;2023-05-10T09:14:01;98708.31;;;17.85;76.24
8318;BME280;4196;48.926;8.964;2023-05-10T09:16:47;98698.72;;;17.86;76.36
8318;BME280;4196;48.926;8.964;2023-05-10T09:19:33;98659.31;;;17.42;74.79
8318;BME280;4196;48.926;8.964;2023-05-10T09:22:20;98707.34;;;17.88;75.04
8318;BME280;4196;48.926;8.964;2023-05-10T09:25:11;98698.16;;;18.00;77.36
8318;BME280;4196;48.926;8.964;2023-05-10T09:27:58;98676.13;;;18.05;74.51
8318;BME280;4196;48.926;8.964;2023-05-10T09:30:53;98711.56;;;18.38;71.78
8318;BME280;4196;48.926;8.964;2023-05-10T09:33:46;98713.78;;;18.25;70.64
8318;BME280;4196;48.926;8.964;2023-05-10T09:36:33;98710.75;;;18.14;72.38
8318;BME280;4196;48.926;8.964;2023-05-10T09:39:19;98699.50;;;17.88;72.09
8318;BME280;4196;48.926;8.964;2023-05-10T09:42:08;98707.91;;;17.96;71.16
8318;BME280;4196;48.926;8.964;2023-05-10T09:45:00;98708.53;;;18.03;70.09
8318;BME280;4196;48.926;8.964;2023-05-10T09:47:47;98725.28;;;17.99;68.02
8318;BME280;4196;48.926;8.964;2023-05-10T09:50:33;98729.88;;;18.16;70.72
8318;BME280;4196;48.926;8.964;2023-05-10T09:53:20;98732.19;;;18.01;67.71
8318;BME280;4196;48.926;8.964;2023-05-10T09:56:07;98703.47;;;17.75;69.31
8318;BME280;4196;48.926;8.964;2023-05-10T09:59:02;98733.28;;;18.18;71.04
8318;BME280;4196;48.926;8.964;2023-05-10T10:01:50;98717.38;;;18.44;70.02
8318;BME280;4196;48.926;8.964;2023-05-10T10:04:40;98730.88;;;18.99;66.79
8318;BME280;4196;48.926;8.964;2023-05-10T10:07:27;98727.75;;;19.12;67.50
8318;BME280;4196;48.926;8.964;2023-05-10T10:10:14;98721.97;;;19.24;67.98
8318;BME280;4196;48.926;8.964;2023-05-10T10:13:01;98733.72;;;19.15;68.17
8318;BME280;4196;48.926;8.964;2023-05-10T10:15:47;98711.59;;;19.21;67.66
8318;BME280;4196;48.926;8.964;2023-05-10T10:18:37;98726.09;;;19.50;66.73
8318;BME280;4196;48.926;8.964;2023-05-10T10:21:25;98680.72;;;19.46;67.92
8318;BME280;4196;48.926;8.964;2023-05-10T10:24:12;98701.84;;;19.43;66.65
8318;BME280;4196;48.926;8.964;2023-05-10T10:27:26;98737.44;;;19.71;68.75
8318;BME280;4196;48.926;8.964;2023-05-10T10:30:31;98709.56;;;19.07;66.10
8318;BME280;4196;48.926;8.964;2023-05-10T10:33:33;98729.91;;;18.59;66.69
8318;BME280;4196;48.926;8.964;2023-05-10T10:36:23;98723.06;;;17.88;74.20
8318;BME280;4196;48.926;8.964;2023-05-10T10:39:10;98737.59;;;17.48;77.00
8318;BME280;4196;48.926;8.964;2023-05-10T10:41:57;98751.75;;;17.43;73.16
8318;BME280;4196;48.926;8.964;2023-05-10T10:44:44;98727.50;;;17.37;73.16
8318;BME280;4196;48.926;8.964;2023-05-10T10:47:30;98737.28;;;17.57;73.03
8318;BME280;4196;48.926;8.964;2023-05-10T10:50:19;98750.56;;;17.76;71.05
8318;BME280;4196;48.926;8.964;2023-05-10T10:53:12;98718.38;;;17.73;70.52
8318;BME280;4196;48.926;8.964;2023-05-10T10:56:10;98727.44;;;17.88;69.91
8318;BME280;4196;48.926;8.964;2023-05-10T10:58:59;98723.63;;;17.96;71.57
8318;BME280;4196;48.926;8.964;2023-05-10T11:01:51;98732.56;;;18.14;71.98
8318;BME280;4196;48.926;8.964;2023-05-10T11:04:41;98676.97;;;18.28;68.20
8318;BME280;4196;48.926;8.964;2023-05-10T11:07:29;98711.06;;;18.72;66.96
8318;BME280;4196;48.926;8.964;2023-05-10T11:10:20;98731.94;;;18.75;64.62
8318;BME280;4196;48.926;8.964;2023-05-10T11:13:08;98740.09;;;19.10;65.05
8318;BME280;4196;48.926;8.964;2023-05-10T11:15:57;98720.94;;;19.08;62.76
8318;BME280;4196;48.926;8.964;2023-05-10T11:24:57;98712.47;;;19.01;59.83
8318;BME280;4196;48.926;8.964;2023-05-10T11:27:45;98717.56;;;19.24;58.36
8318;BME280;4196;48.926;8.964;2023-05-10T11:30:33;98744.78;;;19.22;58.03
8318;BME280;4196;48.926;8.964;2023-05-10T11:33:20;98742.69;;;18.89;59.52
8318;BME280;4196;48.926;8.964;2023-05-10T11:36:11;98741.44;;;19.18;59.27
8318;BME280;4196;48.926;8.964;2023-05-10T11:38:57;98730.06;;;19.19;60.29
8318;BME280;4196;48.926;8.964;2023-05-10T11:41:48;98742.00;;;19.26;59.71
8318;BME280;4196;48.926;8.964;2023-05-10T11:44:35;98741.59;;;19.36;58.84
8318;BME280;4196;48.926;8.964;2023-05-10T11:47:21;98758.47;;;19.30;59.53
8318;BME280;4196;48.926;8.964;2023-05-10T11:50:08;98730.31;;;18.93;59.58
8318;BME280;4196;48.926;8.964;2023-05-10T11:52:55;98750.63;;;18.88;61.15
8318;BME280;4196;48.926;8.964;2023-05-10T11:55:42;98749.41;;;18.96;62.83
8318;BME280;4196;48.926;8.964;2023-05-10T11:58:29;98753.53;;;19.02;58.64
8318;BME280;4196;48.926;8.964;2023-05-10T12:01:15;98734.16;;;18.84;59.25
8318;BME280;4196;48.926;8.964;2023-05-10T12:04:02;98733.75;;;18.73;60.00
8318;BME280;4196;48.926;8.964;2023-05-10T12:06:49;98714.41;;;18.53;58.28
8318;BME280;4196;48.926;8.964;2023-05-10T12:09:35;98760.66;;;18.78;56.96
8318;BME280;4196;48.926;8.964;2023-05-10T12:12:40;98751.53;;;18.65;57.25
8318;BME280;4196;48.926;8.964;2023-05-10T12:15:30;98700.59;;;18.48;57.86
8318;BME280;4196;48.926;8.964;2023-05-10T12:18:23;98767.00;;;18.72;56.55
8318;BME280;4196;48.926;8.964;2023-05-10T12:21:11;98768.63;;;18.53;56.48
8318;BME280;4196;48.926;8.964;2023-05-10T12:24:01;98759.41;;;18.43;57.58
8318;BME280;4196;48.926;8.964;2023-05-10T12:26:48;98748.19;;;18.39;56.97
8318;BME280;4196;48.926;8.964;2023-05-10T12:29:34;98761.38;;;18.38;58.05
8318;BME280;4196;48.926;8.964;2023-05-10T12:32:20;98768.63;;;18.53;59.06
8318;BME280;4196;48.926;8.964;2023-05-10T12:35:07;98765.38;;;18.46;57.21
8318;BME280;4196;48.926;8.964;2023-05-10T12:37:54;98773.66;;;18.35;59.57
8318;BME280;4196;48.926;8.964;2023-05-10T12:40:41;98779.38;;;18.23;57.42
8318;BME280;4196;48.926;8.964;2023-05-10T12:43:28;98778.94;;;18.12;57.92
8318;BME280;4196;48.926;8.964;2023-05-10T12:46:16;98757.47;;;18.02;58.94
8318;BME280;4196;48.926;8.964;2023-05-10T12:49:03;98787.19;;;18.25;58.25
8318;BME280;4196;48.926;8.964;2023-05-10T12:51:54;98778.59;;;18.43;59.04
8318;BME280;4196;48.926;8.964;2023-05-10T12:54:41;98737.03;;;18.56;58.59
8318;BME280;4196;48.926;8.964;2023-05-10T12:57:27;98779.16;;;18.95;56.70
8318;BME280;4196;48.926;8.964;2023-05-10T13:00:14;98765.28;;;18.93;56.53
8318;BME280;4196;48.926;8.964;2023-05-10T13:03:01;98774.69;;;19.19;55.59
8318;BME280;4196;48.926;8.964;2023-05-10T13:05:48;98715.28;;;18.96;55.04
8318;BME280;4196;48.926;8.964;2023-05-10T13:08:34;98766.28;;;19.31;57.72
8318;BME280;4196;48.926;8.964;2023-05-10T13:11:20;98715.63;;;19.09;55.52
8318;BME280;4196;48.926;8.964;2023-05-10T13:14:07;98752.94;;;19.57;55.26
8318;BME280;4196;48.926;8.964;2023-05-10T13:16:53;98743.56;;;19.30;54.13
8318;BME280;4196;48.926;8.964;2023-05-10T13:19:40;98762.38;;;19.40;55.26
8318;BME280;4196;48.926;8.964;2023-05-10T13:22:26;98744.81;;;19.42;55.72
8318;BME280;4196;48.926;8.964;2023-05-10T13:25:25;98759.97;;;19.36;56.22
8318;BME280;4196;48.926;8.964;2023-05-10T13:28:12;98763.31;;;19.39;54.84
8318;BME280;4196;48.926;8.964;2023-05-10T13:30:58;98759.75;;;19.40;56.00
8318;BME280;4196;48.926;8.964;2023-05-10T13:33:46;98769.63;;;19.35;56.67
8318;BME280;4196;48.926;8.964;2023-05-10T13:36:32;98738.50;;;19.46;56.94
8318;BME280;4196;48.926;8.964;2023-05-10T13:39:19;98738.69;;;19.62;57.34
8318;BME280;4196;48.926;8.964;2023-05-10T13:42:06;98752.78;;;19.80;56.64
8318;BME280;4196;48.926;8.964;2023-05-10T13:44:52;98757.97;;;19.63;55.01
8318;BME280;4196;48.926;8.964;2023-05-10T13:47:39;98729.47;;;19.13;56.00
8318;BME280;4196;48.926;8.964;2023-05-10T13:50:25;98745.06;;;19.36;55.78
8318;BME280;4196;48.926;8.964;2023-05-10T13:53:13;98736.94;;;19.42;54.05
8318;BME280;4196;48.926;8.964;2023-05-10T13:56:00;98755.34;;;19.61;53.77
8318;BME280;4196;48.926;8.964;2023-05-10T13:58:46;98732.56;;;19.62;54.92
8318;BME280;4196;48.926;8.964;2023-05-10T14:01:33;98749.25;;;19.81;54.01
8318;BME280;4196;48.926;8.964;2023-05-10T14:04:20;98744.84;;;19.82;54.27
8318;BME280;4196;48.926;8.964;2023-05-10T14:07:06;98750.22;;;19.78;53.23
8318;BME280;4196;48.926;8.964;2023-05-10T14:09:53;98751.41;;;19.51;52.86
8318;BME280;4196;48.926;8.964;2023-05-10T14:12:39;98742.97;;;19.24;55.49
8318;BME280;4196;48.926;8.964;2023-05-10T14:15:25;98715.09;;;19.01;55.70
8318;BME280;4196;48.926;8.964;2023-05-10T14:18:11;98740.28;;;19.25;54.56
8318;BME280;4196;48.926;8.964;2023-05-10T14:20:58;98728.25;;;18.99;56.55
8318;BME280;4196;48.926;8.964;2023-05-10T14:23:44;98731.72;;;19.00;55.85
8318;BME280;4196;48.926;8.964;2023-05-10T14:26:31;98733.78;;;19.14;57.36
8318;BME280;4196;48.926;8.964;2023-05-10T14:29:17;98706.09;;;19.06;55.61
8318;BME280;4196;48.926;8.964;2023-05-10T14:32:04;98711.34;;;19.06;55.53
8318;BME280;4196;48.926;8.964;2023-05-10T14:34:50;98732.22;;;19.30;58.20
8318;BME280;4196;48.926;8.964;2023-05-10T14:37:37;98725.78;;;19.37;55.75
8318;BME280;4196;48.926;8.964;2023-05-10T14:40:23;98720.00;;;19.29;55.43
8318;BME280;4196;48.926;8.964;2023-05-10T14:43:10;98727.09;;;19.27;54.15
8318;BME280;4196;48.926;8.964;2023-05-10T14:45:57;98706.69;;;18.93;56.66
8318;BME280;4196;48.926;8.964;2023-05-10T14:48:43;98731.03;;;19.17;57.78
8318;BME280;4196;48.926;8.964;2023-05-10T14:51:30;98718.97;;;19.13;53.31
8318;BME280;4196;48.926;8.964;2023-05-10T14:54:16;98732.88;;;19.15;54.98
8318;BME280;4196;48.926;8.964;2023-05-10T14:57:03;98725.66;;;19.20;54.49
8318;BME280;4196;48.926;8.964;2023-05-10T14:59:49;98730.78;;;19.23;56.45
8318;BME280;4196;48.926;8.964;2023-05-10T15:02:36;98734.16;;;19.25;53.51
8318;BME280;4196;48.926;8.964;2023-05-10T15:05:23;98734.78;;;19.11;52.83
8318;BME280;4196;48.926;8.964;2023-05-10T15:08:09;98701.22;;;18.77;54.74
8318;BME280;4196;48.926;8.964;2023-05-10T15:10:56;98711.63;;;19.00;53.93
8318;BME280;4196;48.926;8.964;2023-05-10T15:13:43;98712.00;;;18.91;54.87
8318;BME280;4196;48.926;8.964;2023-05-10T15:16:29;98727.28;;;19.02;53.70
8318;BME280;4196;48.926;8.964;2023-05-10T15:19:20;98680.34;;;18.74;53.94
8318;BME280;4196;48.926;8.964;2023-05-10T15:22:06;98734.84;;;19.10;54.55
8318;BME280;4196;48.926;8.964;2023-05-10T15:24:53;98718.25;;;19.09;55.40
8318;BME280;4196;48.926;8.964;2023-05-10T15:27:39;98721.78;;;19.08;54.07